createdAt,value
2024-01-20T00:02:04.841Z,-1.47
2024-01-20T00:04:35.930Z,-1.46
2024-01-20T00:07:06.703Z,-1.40
2024-01-20T00:09:46.034Z,-1.37
2024-01-20T00:12:20.828Z,-1.38
2024-01-20T00:14:51.973Z,-1.34
2024-01-20T00:17:25.803Z,-1.29
2024-01-20T00:19:59.143Z,-1.25
2024-01-20T00:22:29.484Z,-1.23
2024-01-20T00:25:02.158Z,-1.22
2024-01-20T00:27:32.954Z,-1.20
2024-01-20T00:30:04.511Z,-1.15
2024-01-20T00:32:35.469Z,-1.15
2024-01-20T00:35:08.632Z,-1.20
2024-01-20T00:37:40.098Z,-1.20
2024-01-20T00:40:11.781Z,-1.22
2024-01-20T00:42:41.964Z,-1.20
2024-01-20T00:45:13.145Z,-1.18
2024-01-20T00:47:45.779Z,-1.19
2024-01-20T00:50:16.483Z,-1.18
2024-01-20T00:52:46.909Z,-1.17
2024-01-20T00:55:18.725Z,-1.18
2024-01-20T00:57:48.873Z,-1.19
2024-01-20T01:00:20.333Z,-1.17
2024-01-20T01:02:50.587Z,-1.14
2024-01-20T01:05:21.182Z,-1.13
2024-01-20T01:07:51.555Z,-1.17
2024-01-20T01:10:22.013Z,-1.27
2024-01-20T01:12:52.556Z,-1.33
2024-01-20T01:15:23.396Z,-1.31
2024-01-20T01:17:53.631Z,-1.30
2024-01-20T01:20:24.455Z,-1.27
2024-01-20T01:22:54.636Z,-1.22
2024-01-20T01:25:25.145Z,-1.21
2024-01-20T01:27:55.367Z,-1.13
2024-01-20T01:30:25.905Z,-1.07
2024-01-20T01:32:56.154Z,-1.03
2024-01-20T01:35:26.739Z,-1.05
2024-01-20T01:37:59.636Z,-1.05
2024-01-20T01:40:30.249Z,-1.01
2024-01-20T01:43:00.659Z,-0.97
2024-01-20T01:45:31.159Z,-0.93
2024-01-20T01:51:05.437Z,-0.99
2024-01-20T01:53:36.406Z,-1.09
2024-01-20T01:56:08.301Z,-1.06
2024-01-20T01:58:39.127Z,-1.01
2024-01-20T02:01:09.385Z,-0.93
2024-01-20T02:03:40.803Z,-0.85
2024-01-20T02:06:11.417Z,-0.83
2024-01-20T02:08:42.438Z,-0.82
2024-01-20T02:11:13.636Z,-0.86
2024-01-20T02:13:44.989Z,-0.80
2024-01-20T02:16:15.242Z,-0.80
2024-01-20T02:18:46.042Z,-0.75
2024-01-20T02:21:16.388Z,-0.71
2024-01-20T02:23:47.856Z,-0.70
2024-01-20T02:26:18.030Z,-0.72
2024-01-20T02:28:49.713Z,-0.71
2024-01-20T02:31:19.979Z,-0.69
2024-01-20T02:33:50.701Z,-0.68
2024-01-20T02:36:21.315Z,-0.68
2024-01-20T02:38:51.889Z,-0.66
2024-01-20T02:41:22.048Z,-0.69
2024-01-20T02:43:52.569Z,-0.69
2024-01-20T02:46:22.931Z,-0.67
2024-01-20T02:48:53.483Z,-0.63
2024-01-20T02:51:23.888Z,-0.65
2024-01-20T02:53:54.428Z,-0.58
2024-01-20T02:56:25.708Z,-0.58
2024-01-20T02:58:56.369Z,-0.72
2024-01-20T03:01:26.695Z,-0.72
2024-01-20T03:03:57.158Z,-0.72
2024-01-20T03:06:27.460Z,-0.67
2024-01-20T03:08:58.122Z,-0.69
2024-01-20T03:11:28.465Z,-0.65
2024-01-20T03:13:58.921Z,-0.70
2024-01-20T03:16:29.149Z,-0.73
2024-01-20T03:19:00.253Z,-0.72
2024-01-20T03:21:30.705Z,-0.72
2024-01-20T03:24:01.332Z,-0.70
2024-01-20T03:26:31.655Z,-0.75
2024-01-20T03:29:02.433Z,-0.78
2024-01-20T03:31:32.622Z,-0.77
2024-01-20T03:34:03.119Z,-0.75
2024-01-20T03:36:33.405Z,-0.82
2024-01-20T03:39:04.400Z,-0.79
2024-01-20T03:41:34.757Z,-0.74
2024-01-20T03:44:05.445Z,-0.73
2024-01-20T03:46:35.553Z,-0.74
2024-01-20T03:49:06.337Z,-0.76
2024-01-20T03:51:36.970Z,-0.78
2024-01-20T03:54:07.817Z,-0.83
2024-01-20T03:56:45.095Z,-0.86
2024-01-20T03:59:15.736Z,-0.83
2024-01-20T04:01:45.917Z,-0.98
2024-01-20T04:04:16.478Z,-1.02
2024-01-20T04:06:46.589Z,-1.00
2024-01-20T04:09:17.107Z,-0.99
2024-01-20T04:11:47.349Z,-0.96
2024-01-20T04:14:17.982Z,-0.91
2024-01-20T04:16:48.767Z,-0.87
2024-01-20T04:19:19.840Z,-0.89
2024-01-20T04:21:50.153Z,-0.93
2024-01-20T04:24:20.677Z,-0.92
2024-01-20T04:26:50.901Z,-0.90
2024-01-20T04:29:21.382Z,-0.94
2024-01-20T04:31:51.799Z,-0.92
2024-01-20T04:34:22.383Z,-0.91
2024-01-20T04:36:52.657Z,-0.91
2024-01-20T04:39:23.306Z,-0.89
2024-01-20T04:41:53.435Z,-0.94
2024-01-20T04:44:23.928Z,-0.90
2024-01-20T04:46:54.146Z,-0.86
2024-01-20T04:49:24.796Z,-0.86
2024-01-20T04:51:55.064Z,-0.85
2024-01-20T04:54:25.749Z,-0.83
2024-01-20T04:56:58.408Z,-0.84
2024-01-20T04:59:30.575Z,-0.88
2024-01-20T05:02:01.233Z,-0.84
2024-01-20T05:04:31.924Z,-0.84
2024-01-20T05:07:02.189Z,-0.83
2024-01-20T05:09:33.005Z,-0.85
2024-01-20T05:12:03.588Z,-0.80
2024-01-20T05:14:34.280Z,-0.82
2024-01-20T05:17:04.895Z,-0.90
2024-01-20T05:19:39.489Z,-0.89
2024-01-20T05:22:09.839Z,-0.91
2024-01-20T05:24:40.384Z,-0.90
2024-01-20T05:27:11.792Z,-0.97
2024-01-20T05:29:42.352Z,-0.92
2024-01-20T05:32:12.558Z,-0.89
2024-01-20T05:34:43.437Z,-0.89
2024-01-20T05:37:13.755Z,-0.98
2024-01-20T05:39:44.109Z,-0.93
2024-01-20T05:42:15.438Z,-0.92
2024-01-20T05:44:46.049Z,-0.91
2024-01-20T05:47:16.437Z,-0.89
2024-01-20T05:49:46.961Z,-0.84
2024-01-20T05:52:17.163Z,-0.84
2024-01-20T05:54:47.786Z,-0.81
2024-01-20T05:57:18.174Z,-0.77
2024-01-20T05:59:48.928Z,-0.85
2024-01-20T06:02:19.576Z,-0.79
2024-01-20T06:04:50.123Z,-0.78
2024-01-20T06:07:20.484Z,-0.73
2024-01-20T06:09:50.943Z,-0.66
2024-01-20T06:12:21.161Z,-0.63
2024-01-20T06:14:51.671Z,-0.68
2024-01-20T06:17:21.968Z,-0.71
2024-01-20T06:19:52.900Z,-0.69
2024-01-20T06:22:22.955Z,-0.70
2024-01-20T06:24:53.484Z,-0.70
2024-01-20T06:27:23.968Z,-0.71
2024-01-20T06:29:54.524Z,-0.73
2024-01-20T06:32:24.761Z,-0.72
2024-01-20T06:34:55.373Z,-0.69
2024-01-20T06:37:25.799Z,-0.65
2024-01-20T06:39:56.559Z,-0.65
2024-01-20T06:42:27.094Z,-0.66
2024-01-20T06:44:59.256Z,-0.63
2024-01-20T06:47:31.488Z,-0.69
2024-01-20T06:50:02.122Z,-0.65
2024-01-20T06:52:34.169Z,-0.62
2024-01-20T06:55:05.416Z,-0.61
2024-01-20T06:57:35.981Z,-0.66
2024-01-20T07:00:09.803Z,-0.68
2024-01-20T07:02:40.076Z,-0.68
2024-01-20T07:05:11.345Z,-0.72
2024-01-20T07:07:42.508Z,-0.69
2024-01-20T07:10:13.454Z,-0.72
2024-01-20T07:12:43.930Z,-0.70
2024-01-20T07:15:14.456Z,-0.62
2024-01-20T07:17:44.876Z,-0.66
2024-01-20T07:20:15.996Z,-0.69
2024-01-20T07:22:46.252Z,-0.66
2024-01-20T07:25:18.408Z,-0.72
2024-01-20T07:27:48.788Z,-0.70
2024-01-20T07:30:19.450Z,-0.69
2024-01-20T07:32:49.722Z,-0.66
2024-01-20T07:35:21.052Z,-0.60
2024-01-20T07:37:51.396Z,-0.67
2024-01-20T07:40:21.821Z,-0.69
2024-01-20T07:42:52.081Z,-0.63
2024-01-20T07:45:23.007Z,-0.63
2024-01-20T07:47:53.398Z,-0.65
2024-01-20T07:50:23.857Z,-0.63
2024-01-20T07:52:54.197Z,-0.58
2024-01-20T07:55:24.727Z,-0.56
2024-01-20T07:57:54.967Z,-0.55
2024-01-20T08:00:25.551Z,-0.51
2024-01-20T08:02:55.834Z,-0.45
2024-01-20T08:05:26.122Z,-0.47
2024-01-20T08:07:56.154Z,-0.46
2024-01-20T08:10:27.236Z,-0.44
2024-01-20T08:12:57.570Z,-0.46
2024-01-20T08:15:28.347Z,-0.47
2024-01-20T08:17:58.698Z,-0.40
2024-01-20T08:20:29.049Z,-0.34
2024-01-20T08:22:59.365Z,-0.37
2024-01-20T08:25:29.952Z,-0.40
2024-01-20T08:28:00.832Z,-0.34
2024-01-20T08:30:31.282Z,-0.32
2024-01-20T08:33:04.267Z,-0.31
2024-01-20T08:35:36.001Z,-0.30
2024-01-20T08:38:06.267Z,-0.23
2024-01-20T08:40:36.721Z,-0.24
2024-01-20T08:43:07.460Z,-0.26
2024-01-20T08:45:38.543Z,-0.22
2024-01-20T08:48:10.194Z,-0.26
2024-01-20T08:50:41.372Z,-0.27
2024-01-20T08:53:11.604Z,-0.23
2024-01-20T08:55:42.120Z,-0.19
2024-01-20T08:58:12.193Z,-0.24
2024-01-20T09:00:42.747Z,-0.26
2024-01-20T09:03:13.302Z,-0.19
2024-01-20T09:05:43.980Z,-0.19
2024-01-20T09:08:14.635Z,-0.13
2024-01-20T09:10:45.374Z,-0.07
2024-01-20T09:13:16.631Z,-0.18
2024-01-20T09:15:47.383Z,-0.14
2024-01-20T09:18:19.068Z,-0.18
2024-01-20T09:20:50.379Z,-0.17
2024-01-20T09:23:20.573Z,-0.11
2024-01-20T09:25:51.189Z,-0.12
2024-01-20T09:28:21.301Z,-0.20
2024-01-20T09:30:51.818Z,-0.24
2024-01-20T09:33:22.197Z,-0.34
2024-01-20T09:35:52.867Z,-0.44
2024-01-20T09:38:23.262Z,-0.44
2024-01-20T09:40:54.059Z,-0.38
2024-01-20T09:43:24.299Z,-0.33
2024-01-20T09:45:55.588Z,-0.35
2024-01-20T09:48:26.339Z,-0.34
2024-01-20T09:50:58.824Z,-0.35
2024-01-20T09:53:29.489Z,-0.28
2024-01-20T09:56:00.380Z,-0.37
2024-01-20T09:58:33.997Z,-0.46
2024-01-20T10:01:05.759Z,-0.42
2024-01-20T10:03:40.942Z,-0.50
2024-01-20T10:06:11.667Z,-0.52
2024-01-20T10:08:41.847Z,-0.66
2024-01-20T10:11:12.378Z,-0.70
2024-01-20T10:13:42.555Z,-0.75
2024-01-20T10:16:13.024Z,-0.78
2024-01-20T10:18:44.061Z,-0.83
2024-01-20T10:21:14.442Z,-0.88
2024-01-20T10:23:44.820Z,-0.90
2024-01-20T10:26:15.604Z,-0.83
2024-01-20T10:28:46.345Z,-0.81
2024-01-20T10:31:16.885Z,-0.79
2024-01-20T10:33:48.758Z,-0.81
2024-01-20T10:36:20.286Z,-0.93
2024-01-20T10:38:53.504Z,-0.91
2024-01-20T10:41:25.894Z,-0.88
2024-01-20T10:44:03.158Z,-0.93
2024-01-20T10:46:40.652Z,-0.94
2024-01-20T10:49:14.588Z,-0.95
2024-01-20T10:51:46.364Z,-0.97
2024-01-20T10:54:17.553Z,-0.95
2024-01-20T10:56:48.070Z,-0.78
2024-01-20T10:59:20.392Z,-0.70
2024-01-20T11:01:51.218Z,-0.75
2024-01-20T11:04:21.458Z,-0.70
2024-01-20T11:06:52.294Z,-0.65
2024-01-20T11:09:23.341Z,-0.78
2024-01-20T11:12:05.483Z,-0.80
2024-01-20T11:14:36.848Z,-0.79
2024-01-20T11:17:14.491Z,-0.85
2024-01-20T11:19:45.086Z,-0.80
2024-01-20T11:22:35.909Z,-0.86
2024-01-20T11:25:08.139Z,-0.88
2024-01-20T11:27:58.988Z,-0.84
2024-01-20T11:30:36.415Z,-0.89
2024-01-20T11:33:08.451Z,-0.92
2024-01-20T11:35:39.065Z,-0.94
2024-01-20T11:38:09.923Z,-0.93
2024-01-20T11:40:40.353Z,-0.99
2024-01-20T11:43:14.607Z,-0.96
2024-01-20T11:45:44.769Z,-0.98
2024-01-20T11:48:18.710Z,-0.99
2024-01-20T11:50:50.021Z,-1.08
2024-01-20T11:53:23.796Z,-1.15
2024-01-20T11:56:00.653Z,-1.18
2024-01-20T11:58:31.946Z,-1.29
2024-01-20T12:01:04.307Z,-1.37
2024-01-20T12:03:35.157Z,-1.58
2024-01-20T12:06:14.223Z,-1.72
2024-01-20T12:08:46.754Z,-1.82
2024-01-20T12:11:21.169Z,-1.73
2024-01-20T12:13:51.653Z,-1.72
2024-01-20T12:16:25.047Z,-1.78
2024-01-20T12:18:56.517Z,-1.82
2024-01-20T12:21:28.930Z,-1.96
2024-01-20T12:23:59.460Z,-2.10
2024-01-20T12:26:29.374Z,-2.15
2024-01-20T12:28:59.989Z,-2.22
2024-01-20T12:31:31.624Z,-2.30
2024-01-20T12:34:05.138Z,-2.35
2024-01-20T12:36:35.328Z,-2.26
2024-01-20T12:39:06.960Z,-2.38
2024-01-20T12:41:37.311Z,-2.43
2024-01-20T12:44:07.719Z,-2.44
2024-01-20T12:46:38.137Z,-2.39
2024-01-20T12:49:09.084Z,-2.50
2024-01-20T12:51:40.703Z,-2.55
2024-01-20T12:54:11.135Z,-2.53
2024-01-20T12:56:41.484Z,-2.49
2024-01-20T12:59:11.819Z,-2.42
2024-01-20T13:01:42.143Z,-2.41
2024-01-20T13:04:14.790Z,-2.38
2024-01-20T13:06:44.970Z,-2.28
2024-01-20T13:09:15.573Z,-2.18
2024-01-20T13:11:45.740Z,-2.15
2024-01-20T13:14:16.392Z,-2.11
2024-01-20T13:16:46.763Z,-2.00
2024-01-20T13:19:17.489Z,-1.95
2024-01-20T13:21:47.859Z,-1.91
2024-01-20T13:24:18.543Z,-1.89
2024-01-20T13:26:48.606Z,-1.91
2024-01-20T13:29:19.178Z,-1.88
2024-01-20T13:31:49.317Z,-1.80
2024-01-20T13:34:19.949Z,-1.68
2024-01-20T13:36:50.276Z,-1.68
2024-01-20T13:39:20.753Z,-1.65
2024-01-20T13:41:51.838Z,-1.61
2024-01-20T13:44:22.395Z,-1.66
2024-01-20T13:46:52.497Z,-1.74
2024-01-20T13:49:23.253Z,-1.87
2024-01-20T13:51:53.493Z,-1.89
2024-01-20T13:54:25.344Z,-1.97
2024-01-20T13:56:55.678Z,-1.96
2024-01-20T13:59:27.925Z,-1.99
2024-01-20T14:01:58.223Z,-1.98
2024-01-20T14:04:28.772Z,-1.92
2024-01-20T14:07:03.432Z,-1.89
2024-01-20T14:09:36.114Z,-1.87
2024-01-20T14:12:06.722Z,-1.78
2024-01-20T14:14:37.668Z,-1.75
2024-01-20T14:17:08.025Z,-1.74
2024-01-20T14:19:39.333Z,-1.79
2024-01-20T14:22:09.394Z,-1.72
2024-01-20T14:24:39.778Z,-1.59
2024-01-20T14:27:10.071Z,-1.57
2024-01-20T14:29:40.440Z,-1.63
2024-01-20T14:32:10.905Z,-1.63
2024-01-20T14:34:41.525Z,-1.74
2024-01-20T14:37:11.797Z,-1.77
2024-01-20T14:39:42.261Z,-1.77
2024-01-20T14:42:12.797Z,-1.71
2024-01-20T14:44:43.208Z,-1.67
2024-01-20T14:47:13.195Z,-1.65
2024-01-20T14:49:43.831Z,-1.81
2024-01-20T14:52:16.290Z,-1.78
2024-01-20T14:54:46.560Z,-1.76
2024-01-20T14:57:16.772Z,-1.78
2024-01-20T14:59:47.023Z,-1.72
2024-01-20T15:02:17.009Z,-1.71
2024-01-20T15:04:47.716Z,-1.77
2024-01-20T15:07:18.123Z,-1.80
2024-01-20T15:09:48.729Z,-1.74
2024-01-20T15:12:18.965Z,-1.81
2024-01-20T15:14:49.640Z,-1.79
2024-01-20T15:17:19.890Z,-1.74
2024-01-20T15:19:51.137Z,-1.73
2024-01-20T15:22:21.459Z,-1.72
2024-01-20T15:24:51.844Z,-1.76
2024-01-20T15:27:22.202Z,-1.71
2024-01-20T15:29:52.526Z,-1.75
2024-01-20T15:32:24.804Z,-1.81
2024-01-20T15:34:55.454Z,-1.80
2024-01-20T15:37:25.655Z,-1.77
2024-01-20T15:39:56.156Z,-1.79
2024-01-20T15:42:26.572Z,-1.84
2024-01-20T15:44:57.117Z,-1.80
2024-01-20T15:47:27.438Z,-1.75
2024-01-20T15:49:57.737Z,-1.72
2024-01-20T15:52:29.046Z,-1.75
2024-01-20T15:55:00.326Z,-1.67
2024-01-20T15:57:30.632Z,-1.70
2024-01-20T16:00:01.098Z,-1.64
2024-01-20T16:02:31.737Z,-1.67
2024-01-20T16:05:01.995Z,-1.78
2024-01-20T16:07:32.320Z,-1.79
2024-01-20T16:10:04.978Z,-1.74
2024-01-20T16:12:35.227Z,-1.68
2024-01-20T16:15:06.400Z,-1.70
2024-01-20T16:17:37.380Z,-1.65
2024-01-20T16:20:09.613Z,-1.65
2024-01-20T16:22:39.815Z,-1.59
2024-01-20T16:25:10.243Z,-1.62
2024-01-20T16:27:40.498Z,-1.56
2024-01-20T16:30:11.258Z,-1.55
2024-01-20T16:32:41.315Z,-1.55
2024-01-20T16:35:12.414Z,-1.51
2024-01-20T16:37:42.796Z,-1.46
2024-01-20T16:40:13.165Z,-1.45
2024-01-20T16:42:43.580Z,-1.51
2024-01-20T16:45:14.022Z,-1.55
2024-01-20T16:47:44.273Z,-1.59
2024-01-20T16:50:14.735Z,-1.64
2024-01-20T16:52:44.881Z,-1.65
2024-01-20T16:55:17.129Z,-1.68
2024-01-20T16:57:49.083Z,-1.64
2024-01-20T17:00:19.816Z,-1.62
2024-01-20T17:02:49.962Z,-1.68
2024-01-20T17:05:20.582Z,-1.62
2024-01-20T17:07:51.919Z,-1.61
2024-01-20T17:10:22.418Z,-1.63
2024-01-20T17:12:52.730Z,-1.61
2024-01-20T17:15:26.038Z,-1.56
2024-01-20T17:17:56.105Z,-1.53
2024-01-20T17:20:26.512Z,-1.49
2024-01-20T17:22:58.154Z,-1.51
2024-01-20T17:25:28.745Z,-1.47
2024-01-20T17:27:58.907Z,-1.48
2024-01-20T17:30:29.726Z,-1.50
2024-01-20T17:32:59.983Z,-1.45
2024-01-20T17:35:31.304Z,-1.54
2024-01-20T17:38:01.342Z,-1.53
2024-01-20T17:40:31.877Z,-1.56
2024-01-20T17:43:02.189Z,-1.53
2024-01-20T17:45:32.835Z,-1.54
2024-01-20T17:48:03.136Z,-1.54
2024-01-20T17:50:33.616Z,-1.57
2024-01-20T17:53:04.434Z,-1.64
2024-01-20T17:55:34.688Z,-1.56
2024-01-20T17:58:04.801Z,-1.62
2024-01-20T18:00:35.025Z,-1.57
2024-01-20T18:03:05.735Z,-1.55
2024-01-20T18:05:36.912Z,-1.64
2024-01-20T18:08:07.125Z,-1.74
2024-01-20T18:10:39.984Z,-1.73
2024-01-20T18:13:10.402Z,-1.80
2024-01-20T18:15:41.003Z,-1.76
2024-01-20T18:18:11.560Z,-1.70
2024-01-20T18:20:42.103Z,-1.76
2024-01-20T18:23:12.607Z,-1.76
2024-01-20T18:25:43.362Z,-1.78
2024-01-20T18:28:14.396Z,-1.64
2024-01-20T18:30:45.972Z,-1.66
2024-01-20T18:33:16.742Z,-1.68
2024-01-20T18:35:47.184Z,-1.70
2024-01-20T18:38:17.396Z,-1.57
2024-01-20T18:40:48.366Z,-1.46
2024-01-20T18:43:18.474Z,-1.44
2024-01-20T18:45:48.994Z,-1.44
2024-01-20T18:48:19.596Z,-1.42
2024-01-20T18:50:50.052Z,-1.44
2024-01-20T18:53:20.333Z,-1.50
2024-01-20T18:55:51.381Z,-1.55
2024-01-20T18:58:21.492Z,-1.42
2024-01-20T19:00:53.034Z,-1.42
2024-01-20T19:03:23.571Z,-1.34
2024-01-20T19:05:54.051Z,-1.33
2024-01-20T19:08:24.342Z,-1.35
2024-01-20T19:10:54.913Z,-1.29
2024-01-20T19:13:25.030Z,-1.28
2024-01-20T19:15:55.569Z,-1.30
2024-01-20T19:18:25.901Z,-1.25
2024-01-20T19:20:56.359Z,-1.16
2024-01-20T19:23:26.591Z,-1.13
2024-01-20T19:25:57.510Z,-1.14
2024-01-20T19:28:27.663Z,-1.12
2024-01-20T19:30:58.402Z,-1.04
2024-01-20T19:33:28.826Z,-0.95
2024-01-20T19:35:59.642Z,-0.99
2024-01-20T19:38:29.692Z,-0.98
2024-01-20T19:41:00.159Z,-0.97
2024-01-20T19:43:32.028Z,-0.98
2024-01-20T19:46:03.860Z,-1.07
2024-01-20T19:48:34.761Z,-1.11
2024-01-20T19:51:05.791Z,-1.21
2024-01-20T19:53:36.509Z,-1.31
2024-01-20T19:56:08.477Z,-1.30
2024-01-20T19:58:38.589Z,-1.39
2024-01-20T20:01:09.972Z,-1.43
2024-01-20T20:03:40.282Z,-1.49
2024-01-20T20:06:11.079Z,-1.49
2024-01-20T20:08:41.366Z,-1.34
2024-01-20T20:11:11.906Z,-1.28
2024-01-20T20:13:42.176Z,-1.27
2024-01-20T20:16:12.587Z,-1.24
2024-01-20T20:18:42.951Z,-1.15
2024-01-20T20:21:14.982Z,-1.10
2024-01-20T20:23:45.100Z,-1.03
2024-01-20T20:26:15.596Z,-1.03
2024-01-20T20:28:45.822Z,-1.01
2024-01-20T20:31:18.177Z,-0.95
2024-01-20T20:33:48.556Z,-0.95
2024-01-20T20:36:20.623Z,-0.96
2024-01-20T20:38:51.201Z,-0.99
2024-01-20T20:41:21.918Z,-1.01
2024-01-20T20:43:52.539Z,-0.99
2024-01-20T20:46:23.004Z,-1.02
2024-01-20T20:48:53.264Z,-1.08
2024-01-20T20:51:24.793Z,-1.08
2024-01-20T20:53:55.105Z,-0.97
2024-01-20T20:56:25.693Z,-0.84
2024-01-20T20:58:55.952Z,-0.87
2024-01-20T21:01:26.459Z,-0.80
2024-01-20T21:03:56.723Z,-0.71
2024-01-20T21:06:27.960Z,-0.62
2024-01-20T21:08:58.820Z,-0.59
2024-01-20T21:11:30.194Z,-0.66
2024-01-20T21:14:00.512Z,-0.71
2024-01-20T21:16:31.074Z,-0.78
2024-01-20T21:19:02.402Z,-0.72
2024-01-20T21:21:33.904Z,-0.68
2024-01-20T21:24:04.285Z,-0.73
2024-01-20T21:26:36.121Z,-0.80
2024-01-20T21:29:06.205Z,-0.79
2024-01-20T21:31:36.704Z,-0.79
2024-01-20T21:34:06.993Z,-0.82
2024-01-20T21:36:38.630Z,-0.82
2024-01-20T21:39:11.009Z,-0.82
2024-01-20T21:41:41.574Z,-0.83
2024-01-20T21:44:11.885Z,-0.79
2024-01-20T21:46:42.705Z,-0.79
2024-01-20T21:49:13.117Z,-0.73
2024-01-20T21:51:43.750Z,-0.71
2024-01-20T21:54:15.136Z,-0.70
2024-01-20T21:56:45.788Z,-0.68
2024-01-20T21:59:15.978Z,-0.69
2024-01-20T22:01:46.560Z,-0.76
2024-01-20T22:04:16.821Z,-0.82
2024-01-20T22:06:47.541Z,-0.88
2024-01-20T22:09:18.068Z,-0.99
2024-01-20T22:11:48.601Z,-1.13
2024-01-20T22:14:18.935Z,-1.22
2024-01-20T22:16:49.312Z,-1.26
2024-01-20T22:19:19.741Z,-1.18
2024-01-20T22:21:50.482Z,-1.11
2024-01-20T22:24:20.788Z,-1.15
2024-01-20T22:26:51.553Z,-1.12
2024-01-20T22:29:30.633Z,-1.04
2024-01-20T22:32:02.610Z,-1.02
2024-01-20T22:34:33.531Z,-1.08
2024-01-20T22:37:04.554Z,-1.13
2024-01-20T22:39:35.283Z,-1.15
2024-01-20T22:42:06.116Z,-1.14
2024-01-20T22:44:36.202Z,-1.16
2024-01-20T22:47:06.687Z,-1.18
2024-01-20T22:49:37.940Z,-1.28
2024-01-20T22:52:09.981Z,-1.29
2024-01-20T22:54:40.305Z,-1.32
2024-01-20T22:57:10.704Z,-1.39
2024-01-20T22:59:40.900Z,-1.34
2024-01-20T23:02:11.413Z,-1.40
2024-01-20T23:04:41.764Z,-1.37
2024-01-20T23:07:12.440Z,-1.36
2024-01-20T23:09:43.264Z,-1.37
2024-01-20T23:12:14.167Z,-1.45
2024-01-20T23:14:44.984Z,-1.53
2024-01-20T23:17:17.506Z,-1.54
2024-01-20T23:19:47.881Z,-1.37
2024-01-20T23:22:18.422Z,-1.30
2024-01-20T23:24:49.238Z,-1.31
2024-01-20T23:27:21.268Z,-1.30
2024-01-20T23:29:51.523Z,-1.25
2024-01-20T23:32:22.047Z,-1.37
2024-01-20T23:34:52.191Z,-1.52
2024-01-20T23:37:22.793Z,-1.47
2024-01-20T23:39:53.030Z,-1.38
2024-01-20T23:42:23.890Z,-1.30
2024-01-20T23:44:54.556Z,-1.27
2024-01-20T23:47:25.130Z,-1.23
2024-01-20T23:49:55.582Z,-1.25
2024-01-20T23:52:26.742Z,-1.31
2024-01-20T23:54:57.014Z,-1.29
2024-01-20T23:57:27.684Z,-1.25
2024-01-20T23:59:57.911Z,-1.24
